Time;durP1;ratioP1;P1;durP2;ratioP2;P2;SDS_P1;SDS_P2;PMS_P1;PMS_P2;Temp;Humidity;BMP_temperature;BMP_pressure;BME280_temperature;BME280_humidity;BME280_pressure;Samples;Min_cycle;Max_cycle;Signal;HPM_P1;HPM_P2
2021/09/30 00:00:08;;;;;;;;;;;19.80;62.30;;;;;;5054072;28;19927;-67
2021/09/30 00:02:34;;;;;;;;;;;19.80;62.10;;;;;;5040344;28;20007;-67
2021/09/30 00:04:59;;;;;;;;;;;19.80;61.90;;;;;;5050906;28;20004;-67
2021/09/30 00:07:25;;;;;;;;;;;19.80;62.10;;;;;;5050730;28;19917;-67
2021/09/30 00:09:50;;;;;;;;;;;19.80;62.30;;;;;;5022960;28;20398;-67
2021/09/30 00:12:19;;;;;;;;;;;19.70;62.20;;;;;;5033967;28;19944;-68
2021/09/30 00:17:26;;;;;;;;;;;19.80;62.10;;;;;;5028107;28;19924;-67
2021/09/30 00:32:34;;;;;;;;;;;19.80;62.00;;;;;;5041673;28;19925;-67
2021/09/30 00:33:44;;;;;;;;;;;19.80;61.80;;;;;;5057205;28;19931;-67
2021/09/30 00:51:48;;;;;;;;;;;19.70;61.30;;;;;;5087014;28;19930;-60
2021/09/30 01:29:54;;;;;;;;;;;19.70;60.70;;;;;;5068056;28;19969;-60
2021/09/30 01:58:28;;;;;;;;;;;19.60;60.30;;;;;;5064485;28;19923;-60
2021/09/30 02:20:25;;;;;;;;;;;19.50;59.50;;;;;;5070968;27;19959;-60
2021/09/30 02:23:08;;;;;;;;;;;19.60;60.50;;;;;;5072792;28;20006;-61
2021/09/30 02:26:08;;;;;;;;;;;19.60;60.50;;;;;;5077941;28;19920;-60
2021/09/30 02:28:46;;;;;;;;;;;19.50;60.90;;;;;;5081566;27;20343;-60
2021/09/30 02:58:33;;;;;;;;;;;19.60;60.20;;;;;;5081050;27;19989;-61
2021/09/30 03:00:59;;;;;;;;;;;19.50;59.50;;;;;;5076714;28;20769;-60
2021/09/30 03:03:24;;;;;;;;;;;19.50;59.50;;;;;;5081292;27;20007;-60
2021/09/30 03:05:54;;;;;;;;;;;19.50;60.20;;;;;;5077802;28;19916;-58
2021/09/30 03:08:26;;;;;;;;;;;19.50;59.50;;;;;;5082134;28;19911;-60
2021/09/30 03:10:53;;;;;;;;;;;19.50;60.50;;;;;;5099783;27;19916;-60
2021/09/30 03:13:19;;;;;;;;;;;19.50;59.40;;;;;;5093429;28;19924;-61
2021/09/30 03:15:53;;;;;;;;;;;19.50;60.10;;;;;;5083482;28;19943;-59
2021/09/30 03:18:30;;;;;;;;;;;19.50;60.30;;;;;;5055662;28;19939;-61
2021/09/30 03:23:24;;;;;;;;;;;19.50;60.50;;;;;;5071871;28;19916;-61
2021/09/30 03:25:50;;;;;;;;;;;19.50;60.20;;;;;;5097570;27;20161;-60
2021/09/30 03:28:16;;;;;;;;;;;19.50;60.30;;;;;;5074195;28;19916;-58
2021/09/30 03:30:41;;;;;;;;;;;19.50;60.10;;;;;;5090751;28;19987;-60
2021/09/30 03:33:07;;;;;;;;;;;19.50;59.70;;;;;;5072638;28;20439;-64
2021/09/30 03:35:32;;;;;;;;;;;19.50;59.80;;;;;;5077349;28;20016;-60
2021/09/30 03:37:59;;;;;;;;;;;19.50;59.40;;;;;;5094823;28;20420;-60
2021/09/30 03:40:25;;;;;;;;;;;19.50;60.30;;;;;;5082336;28;20315;-61
2021/09/30 03:42:50;;;;;;;;;;;19.50;60.10;;;;;;5096378;28;19912;-60
2021/09/30 03:45:16;;;;;;;;;;;19.50;59.50;;;;;;5094141;28;19935;-59
2021/09/30 03:47:41;;;;;;;;;;;19.50;59.70;;;;;;5090139;28;19919;-58
2021/09/30 03:50:13;;;;;;;;;;;19.50;59.70;;;;;;5102679;28;19916;-59
2021/09/30 03:52:55;;;;;;;;;;;19.50;59.70;;;;;;5090500;28;19923;-59
2021/09/30 04:00:48;;;;;;;;;;;19.40;60.20;;;;;;5096005;28;20175;-59
2021/09/30 04:03:14;;;;;;;;;;;19.40;60.30;;;;;;5089540;28;20560;-58
2021/09/30 04:05:39;;;;;;;;;;;19.40;59.80;;;;;;5098261;28;19955;-59
2021/09/30 04:08:05;;;;;;;;;;;19.40;60.00;;;;;;5087345;28;20007;-56
2021/09/30 04:10:30;;;;;;;;;;;19.40;59.30;;;;;;5092295;28;20293;-58
2021/09/30 04:12:56;;;;;;;;;;;19.40;60.00;;;;;;5092916;28;19923;-57
2021/09/30 04:15:21;;;;;;;;;;;19.40;60.10;;;;;;5084423;28;20266;-59
2021/09/30 04:17:46;;;;;;;;;;;19.40;59.70;;;;;;5088753;28;19915;-58
2021/09/30 04:20:13;;;;;;;;;;;19.30;60.00;;;;;;5086499;28;19916;-59
2021/09/30 04:22:38;;;;;;;;;;;19.40;59.80;;;;;;5075610;28;20342;-59
2021/09/30 04:25:04;;;;;;;;;;;19.30;60.10;;;;;;5085223;28;19912;-57
2021/09/30 04:27:29;;;;;;;;;;;19.30;59.60;;;;;;5104857;28;19912;-55
2021/09/30 04:29:55;;;;;;;;;;;19.40;60.40;;;;;;5096091;28;19912;-58
2021/09/30 04:32:20;;;;;;;;;;;19.40;59.40;;;;;;5086923;28;19923;-59
2021/09/30 04:34:46;;;;;;;;;;;19.40;60.20;;;;;;5095623;28;19920;-58
2021/09/30 04:37:13;;;;;;;;;;;19.30;60.90;;;;;;5093048;28;20339;-56
2021/09/30 04:39:38;;;;;;;;;;;19.30;59.80;;;;;;5091617;28;20606;-57
2021/09/30 04:42:04;;;;;;;;;;;19.40;58.90;;;;;;5089804;28;19920;-56
2021/09/30 04:44:29;;;;;;;;;;;19.40;60.90;;;;;;5084104;28;20381;-59
2021/09/30 04:46:55;;;;;;;;;;;19.30;60.40;;;;;;5086647;28;19930;-59
2021/09/30 04:49:20;;;;;;;;;;;19.30;60.60;;;;;;5088212;28;19916;-59
2021/09/30 04:51:45;;;;;;;;;;;19.30;61.20;;;;;;5100893;28;19912;-59
2021/09/30 04:54:11;;;;;;;;;;;19.30;61.40;;;;;;5086530;28;20393;-57
2021/09/30 04:56:36;;;;;;;;;;;19.30;62.20;;;;;;5093241;28;19919;-59
2021/09/30 04:59:03;;;;;;;;;;;19.30;61.90;;;;;;5077888;28;20403;-59
2021/09/30 05:01:28;;;;;;;;;;;19.40;61.30;;;;;;5093647;28;19919;-59
2021/09/30 05:03:54;;;;;;;;;;;19.30;61.60;;;;;;5069393;28;20312;-59
2021/09/30 05:06:19;;;;;;;;;;;19.30;60.50;;;;;;5076737;28;19911;-59
2021/09/30 05:08:48;;;;;;;;;;;19.30;61.20;;;;;;5081175;28;19912;-58
2021/09/30 05:11:14;;;;;;;;;;;19.40;60.60;;;;;;5088856;28;19998;-59
2021/09/30 05:13:41;;;;;;;;;;;19.40;60.50;;;;;;5093594;28;19994;-57
2021/09/30 05:16:08;;;;;;;;;;;19.30;59.70;;;;;;5085572;28;19939;-59
2021/09/30 05:18:34;;;;;;;;;;;19.30;60.00;;;;;;5080601;28;19920;-58
2021/09/30 05:20:59;;;;;;;;;;;19.30;59.00;;;;;;5068463;28;19923;-59
2021/09/30 05:23:25;;;;;;;;;;;19.30;60.90;;;;;;5084942;28;20327;-58
2021/09/30 05:25:50;;;;;;;;;;;19.20;61.80;;;;;;5083369;28;19938;-59
2021/09/30 05:28:16;;;;;;;;;;;19.20;61.80;;;;;;5087554;28;19916;-59
2021/09/30 05:30:41;;;;;;;;;;;19.20;62.10;;;;;;5096998;28;20028;-59
2021/09/30 05:33:07;;;;;;;;;;;19.20;61.80;;;;;;5070869;28;20357;-59
2021/09/30 05:35:32;;;;;;;;;;;19.20;60.90;;;;;;5102526;28;20540;-59
2021/09/30 05:37:57;;;;;;;;;;;19.20;59.90;;;;;;5095494;28;20005;-59
2021/09/30 05:40:24;;;;;;;;;;;19.20;59.40;;;;;;5095851;28;19912;-59
2021/09/30 05:42:49;;;;;;;;;;;19.20;59.00;;;;;;5103300;28;19919;-59
2021/09/30 05:45:16;;;;;;;;;;;19.20;58.40;;;;;;5089014;28;19912;-56
2021/09/30 05:47:42;;;;;;;;;;;19.20;58.50;;;;;;5098075;28;19973;-59
2021/09/30 05:50:07;;;;;;;;;;;19.20;58.20;;;;;;5097563;28;19916;-59
2021/09/30 05:52:33;;;;;;;;;;;19.30;57.80;;;;;;5093049;28;19912;-59
2021/09/30 05:54:59;;;;;;;;;;;19.30;57.00;;;;;;5098593;27;20006;-59
2021/09/30 05:57:24;;;;;;;;;;;19.30;57.00;;;;;;5093775;28;19966;-56
2021/09/30 05:59:50;;;;;;;;;;;19.30;56.80;;;;;;5093510;28;20387;-59
2021/09/30 06:11:00;;;;;;;;;;;19.30;55.90;;;;;;5073222;28;20646;-58
2021/09/30 06:13:31;;;;;;;;;;;19.20;55.50;;;;;;5093016;28;20479;-58
2021/09/30 06:15:57;;;;;;;;;;;19.20;56.00;;;;;;5081861;28;20593;-58
2021/09/30 06:18:22;;;;;;;;;;;19.20;55.80;;;;;;5096130;28;20020;-58
2021/09/30 06:20:50;;;;;;;;;;;19.20;55.60;;;;;;5093374;28;21289;-57
2021/09/30 06:23:16;;;;;;;;;;;19.20;55.40;;;;;;5095570;28;19958;-57
2021/09/30 06:25:42;;;;;;;;;;;19.20;54.90;;;;;;5086391;28;19916;-58
2021/09/30 06:28:07;;;;;;;;;;;19.10;54.10;;;;;;5090012;28;20646;-57
2021/09/30 06:30:33;;;;;;;;;;;19.10;53.40;;;;;;5093418;28;19912;-58
2021/09/30 06:32:58;;;;;;;;;;;19.10;53.30;;;;;;5098977;28;19921;-58
2021/09/30 06:35:24;;;;;;;;;;;19.10;53.00;;;;;;5089241;28;19924;-56
2021/09/30 06:37:49;;;;;;;;;;;19.20;53.30;;;;;;5084849;28;19912;-58
2021/09/30 06:40:15;;;;;;;;;;;19.20;53.40;;;;;;5084742;28;19998;-58
2021/09/30 06:42:40;;;;;;;;;;;19.20;53.40;;;;;;5095427;22;20012;-55
2021/09/30 06:45:06;;;;;;;;;;;19.20;53.80;;;;;;5067121;28;20710;-55
2021/09/30 06:47:36;;;;;;;;;;;19.20;53.60;;;;;;5090707;28;20003;-55
2021/09/30 06:50:02;;;;;;;;;;;19.20;53.70;;;;;;5065746;28;20266;-53
2021/09/30 06:52:28;;;;;;;;;;;19.10;53.90;;;;;;5081653;28;19912;-53
2021/09/30 06:54:53;;;;;;;;;;;19.10;54.10;;;;;;5095336;28;19931;-56
2021/09/30 06:57:21;;;;;;;;;;;19.10;54.40;;;;;;5089661;28;19912;-55
2021/09/30 06:59:47;;;;;;;;;;;19.10;54.60;;;;;;5091327;28;19911;-54
2021/09/30 07:02:13;;;;;;;;;;;19.10;54.90;;;;;;5061258;28;19920;-58
2021/09/30 07:04:38;;;;;;;;;;;19.10;55.20;;;;;;5090575;28;19939;-58
2021/09/30 07:07:04;;;;;;;;;;;19.10;55.80;;;;;;5091287;28;20082;-58
2021/09/30 07:09:30;;;;;;;;;;;19.10;56.20;;;;;;5085532;28;19973;-59
2021/09/30 07:11:57;;;;;;;;;;;19.10;56.20;;;;;;5092053;28;19919;-55
2021/09/30 07:14:22;;;;;;;;;;;19.10;56.30;;;;;;5089328;28;19916;-59
2021/09/30 07:16:47;;;;;;;;;;;19.10;56.40;;;;;;5094890;28;20424;-58
2021/09/30 07:19:13;;;;;;;;;;;19.10;56.50;;;;;;5095035;28;19916;-55
2021/09/30 07:21:38;;;;;;;;;;;19.10;56.60;;;;;;5094506;28;19912;-51
2021/09/30 07:24:05;;;;;;;;;;;19.10;56.70;;;;;;5094576;28;20328;-50
2021/09/30 07:26:30;;;;;;;;;;;19.00;56.50;;;;;;5102400;28;19912;-54
2021/09/30 07:28:56;;;;;;;;;;;19.00;57.00;;;;;;5096808;28;19919;-50
2021/09/30 07:31:21;;;;;;;;;;;19.10;57.00;;;;;;5083050;28;19942;-54
2021/09/30 07:33:47;;;;;;;;;;;19.10;57.10;;;;;;5092224;28;19919;-54
2021/09/30 07:36:13;;;;;;;;;;;19.10;57.40;;;;;;5095349;28;20288;-53
2021/09/30 07:38:39;;;;;;;;;;;19.10;57.40;;;;;;5053895;28;20415;-58
2021/09/30 07:41:05;;;;;;;;;;;19.00;57.60;;;;;;5084341;28;20376;-54
2021/09/30 07:43:30;;;;;;;;;;;19.00;57.80;;;;;;5091526;28;19928;-59
2021/09/30 07:45:56;;;;;;;;;;;19.00;57.90;;;;;;5082174;28;19912;-57
2021/09/30 07:48:21;;;;;;;;;;;19.00;57.90;;;;;;5072345;28;19920;-56
2021/09/30 07:50:47;;;;;;;;;;;19.00;58.10;;;;;;5092403;28;20284;-57
2021/09/30 07:53:14;;;;;;;;;;;19.00;58.20;;;;;;5056295;28;19912;-55
2021/09/30 07:55:39;;;;;;;;;;;19.00;58.30;;;;;;5089760;28;19912;-55
2021/09/30 07:58:09;;;;;;;;;;;19.00;58.40;;;;;;5088414;28;19923;-56
2021/09/30 08:00:35;;;;;;;;;;;19.00;58.50;;;;;;5092673;28;20420;-52
2021/09/30 08:03:00;;;;;;;;;;;19.00;58.60;;;;;;5082099;28;19942;-56
2021/09/30 08:05:25;;;;;;;;;;;19.00;58.70;;;;;;5076856;28;20332;-56
2021/09/30 08:07:51;;;;;;;;;;;19.00;58.70;;;;;;5091022;28;19912;-55
2021/09/30 08:10:16;;;;;;;;;;;19.00;58.80;;;;;;5082026;28;19912;-55
2021/09/30 08:12:42;;;;;;;;;;;19.00;58.80;;;;;;5091841;28;20361;-55
2021/09/30 08:15:08;;;;;;;;;;;19.00;59.00;;;;;;5080252;28;19916;-54
2021/09/30 08:17:33;;;;;;;;;;;19.00;59.00;;;;;;5092102;28;20011;-56
2021/09/30 08:19:58;;;;;;;;;;;19.00;59.00;;;;;;5093161;28;20916;-57
2021/09/30 08:22:24;;;;;;;;;;;19.00;59.00;;;;;;5090676;28;19993;-58
2021/09/30 08:24:49;;;;;;;;;;;19.00;59.10;;;;;;5087242;28;19916;-55
2021/09/30 08:27:15;;;;;;;;;;;19.00;59.20;;;;;;5081998;28;19916;-56
2021/09/30 08:29:40;;;;;;;;;;;19.00;59.20;;;;;;5094849;28;20559;-55
2021/09/30 08:32:06;;;;;;;;;;;19.00;59.20;;;;;;5096267;28;19976;-53
2021/09/30 08:34:31;;;;;;;;;;;19.00;59.20;;;;;;5087011;28;20007;-52
2021/09/30 08:36:57;;;;;;;;;;;19.00;60.00;;;;;;5082284;28;19912;-57
2021/09/30 08:39:22;;;;;;;;;;;19.00;59.40;;;;;;5087459;28;20449;-55
2021/09/30 08:41:48;;;;;;;;;;;19.00;59.40;;;;;;5089100;28;19995;-55
2021/09/30 08:44:13;;;;;;;;;;;19.00;59.60;;;;;;5098736;28;19924;-58
2021/09/30 08:46:39;;;;;;;;;;;19.00;59.60;;;;;;5102501;28;19964;-56
2021/09/30 08:49:04;;;;;;;;;;;18.90;59.60;;;;;;5093126;28;20355;-57
2021/09/30 08:51:30;;;;;;;;;;;19.00;59.60;;;;;;5097728;28;19924;-58
2021/09/30 08:53:55;;;;;;;;;;;18.90;59.60;;;;;;5087162;28;19940;-55
2021/09/30 08:56:21;;;;;;;;;;;18.90;59.50;;;;;;5086467;28;19916;-53
2021/09/30 08:58:47;;;;;;;;;;;18.90;59.60;;;;;;5082928;28;19912;-54
2021/09/30 09:01:13;;;;;;;;;;;18.90;59.70;;;;;;5092927;28;19912;-50
2021/09/30 09:03:43;;;;;;;;;;;18.90;59.70;;;;;;5088626;28;19922;-51
2021/09/30 09:06:09;;;;;;;;;;;18.90;59.70;;;;;;5073366;28;20063;-56
2021/09/30 09:08:34;;;;;;;;;;;18.90;59.80;;;;;;5085033;28;19912;-51
2021/09/30 09:11:00;;;;;;;;;;;18.90;59.80;;;;;;5094265;28;20023;-52
2021/09/30 09:13:26;;;;;;;;;;;18.90;59.90;;;;;;5057987;28;19916;-56
2021/09/30 09:15:57;;;;;;;;;;;18.90;60.00;;;;;;5068143;28;19970;-53
2021/09/30 09:18:46;;;;;;;;;;;18.90;60.00;;;;;;5072675;28;19912;-52
2021/09/30 09:21:12;;;;;;;;;;;18.90;60.00;;;;;;5052437;28;19962;-54
2021/09/30 09:23:51;;;;;;;;;;;18.90;60.10;;;;;;5082818;28;19916;-59
2021/09/30 09:26:20;;;;;;;;;;;18.90;59.90;;;;;;5066864;28;19912;-55
2021/09/30 09:29:02;;;;;;;;;;;18.90;60.10;;;;;;5073060;28;19912;-52
2021/09/30 09:31:30;;;;;;;;;;;18.90;60.10;;;;;;5096890;28;19938;-58
2021/09/30 09:33:56;;;;;;;;;;;18.90;60.10;;;;;;5093488;28;19916;-58
2021/09/30 09:36:25;;;;;;;;;;;18.90;60.20;;;;;;5075539;28;19998;-59
2021/09/30 09:38:51;;;;;;;;;;;18.90;60.20;;;;;;5091682;28;19977;-58
2021/09/30 09:41:24;;;;;;;;;;;18.90;60.20;;;;;;5094610;28;19912;-55
2021/09/30 09:43:50;;;;;;;;;;;18.90;60.30;;;;;;5093907;28;19920;-59
2021/09/30 09:46:18;;;;;;;;;;;18.90;60.20;;;;;;5087522;28;19912;-58
2021/09/30 09:49:19;;;;;;;;;;;18.90;60.20;;;;;;5095156;28;19919;-60
2021/09/30 09:51:47;;;;;;;;;;;18.90;60.90;;;;;;5031865;28;20457;-56
2021/09/30 09:54:14;;;;;;;;;;;18.90;60.30;;;;;;5096440;28;19970;-58
2021/09/30 09:56:39;;;;;;;;;;;18.80;60.30;;;;;;5080290;28;19911;-56
2021/09/30 09:59:05;;;;;;;;;;;18.80;60.30;;;;;;5097344;28;19919;-57
2021/09/30 10:01:40;;;;;;;;;;;18.80;60.40;;;;;;5092590;28;19930;-56
2021/09/30 10:04:06;;;;;;;;;;;18.80;60.40;;;;;;5075758;28;19956;-56
2021/09/30 10:06:32;;;;;;;;;;;18.80;60.40;;;;;;5099076;28;19944;-56
2021/09/30 10:08:58;;;;;;;;;;;18.80;60.50;;;;;;5094687;28;19961;-54
2021/09/30 10:11:23;;;;;;;;;;;18.80;60.50;;;;;;5081533;28;19920;-58
2021/09/30 10:13:49;;;;;;;;;;;18.80;60.20;;;;;;5091386;28;19915;-51
2021/09/30 10:16:15;;;;;;;;;;;18.80;60.60;;;;;;5094015;28;19969;-54
2021/09/30 10:18:40;;;;;;;;;;;18.80;60.50;;;;;;5062967;28;19961;-60
2021/09/30 10:21:06;;;;;;;;;;;18.80;60.60;;;;;;5064166;28;20211;-55
2021/09/30 10:23:34;;;;;;;;;;;18.80;60.50;;;;;;5090065;28;19923;-52
2021/09/30 10:26:06;;;;;;;;;;;18.80;60.60;;;;;;5090981;28;19912;-52
2021/09/30 10:28:37;;;;;;;;;;;18.80;60.60;;;;;;5066666;28;19977;-58
2021/09/30 10:31:03;;;;;;;;;;;18.80;60.60;;;;;;5088197;28;19920;-59
2021/09/30 10:33:54;;;;;;;;;;;18.80;60.60;;;;;;5072541;28;19916;-55
2021/09/30 10:36:33;;;;;;;;;;;18.80;60.70;;;;;;5070835;28;19912;-54
2021/09/30 10:39:16;;;;;;;;;;;18.80;60.70;;;;;;5057703;28;19916;-55
2021/09/30 10:41:42;;;;;;;;;;;18.80;60.70;;;;;;5073007;28;19916;-57
2021/09/30 10:44:13;;;;;;;;;;;18.80;60.60;;;;;;5078926;28;19916;-55
2021/09/30 10:46:40;;;;;;;;;;;18.80;60.70;;;;;;5089051;28;20289;-58
2021/09/30 10:49:26;;;;;;;;;;;18.80;60.70;;;;;;5077815;28;19919;-60
2021/09/30 10:52:10;;;;;;;;;;;18.80;60.60;;;;;;5088649;28;19916;-52
2021/09/30 10:54:38;;;;;;;;;;;18.80;60.60;;;;;;5073815;28;19918;-59
2021/09/30 10:57:11;;;;;;;;;;;18.80;60.60;;;;;;5093860;28;19912;-54
2021/09/30 10:59:40;;;;;;;;;;;18.80;60.70;;;;;;5058771;28;20015;-57
2021/09/30 11:02:07;;;;;;;;;;;18.80;60.80;;;;;;5084494;28;20200;-62
2021/09/30 11:04:53;;;;;;;;;;;18.80;60.70;;;;;;5085559;28;19923;-58
2021/09/30 11:07:18;;;;;;;;;;;18.80;60.50;;;;;;5099608;28;19943;-53
2021/09/30 11:10:10;;;;;;;;;;;18.80;60.60;;;;;;5074839;28;19916;-58
2021/09/30 11:12:35;;;;;;;;;;;18.80;60.60;;;;;;5055375;28;19964;-60
2021/09/30 11:15:01;;;;;;;;;;;18.80;60.60;;;;;;5066787;28;19924;-56
2021/09/30 11:17:52;;;;;;;;;;;18.80;60.60;;;;;;5097895;28;20124;-53
2021/09/30 11:20:31;;;;;;;;;;;18.80;60.70;;;;;;5071944;28;19920;-56
2021/09/30 11:22:57;;;;;;;;;;;18.80;60.60;;;;;;5092003;28;20087;-51
2021/09/30 11:25:23;;;;;;;;;;;18.80;60.70;;;;;;5091190;28;20734;-56
2021/09/30 11:27:49;;;;;;;;;;;18.80;60.70;;;;;;5073896;28;19974;-52
2021/09/30 11:30:15;;;;;;;;;;;18.80;60.80;;;;;;5058226;28;19916;-55
2021/09/30 11:32:41;;;;;;;;;;;18.80;60.80;;;;;;5072467;28;19916;-53
2021/09/30 11:35:07;;;;;;;;;;;18.80;60.80;;;;;;5084410;28;19920;-52
2021/09/30 11:37:36;;;;;;;;;;;18.80;60.60;;;;;;5078334;28;19999;-52
2021/09/30 11:40:05;;;;;;;;;;;18.80;60.80;;;;;;5061749;28;19912;-60
2021/09/30 11:42:34;;;;;;;;;;;18.80;60.80;;;;;;5075924;28;19926;-54
2021/09/30 11:45:01;;;;;;;;;;;18.80;60.80;;;;;;5081038;28;19919;-52
2021/09/30 11:47:27;;;;;;;;;;;18.80;60.80;;;;;;5090221;28;19912;-56
2021/09/30 11:49:53;;;;;;;;;;;18.80;60.70;;;;;;5083102;28;19945;-57
2021/09/30 11:52:18;;;;;;;;;;;18.80;60.80;;;;;;5101207;28;19913;-56
2021/09/30 11:54:43;;;;;;;;;;;18.80;60.80;;;;;;5076709;28;19916;-55
2021/09/30 11:57:22;;;;;;;;;;;18.80;60.90;;;;;;5096429;28;20374;-56
2021/09/30 11:59:48;;;;;;;;;;;18.70;60.80;;;;;;5063176;28;19966;-58
2021/09/30 12:02:13;;;;;;;;;;;18.80;60.90;;;;;;5079973;28;19916;-57
2021/09/30 12:04:44;;;;;;;;;;;18.80;60.90;;;;;;5061977;28;19916;-56
2021/09/30 12:07:16;;;;;;;;;;;18.80;60.90;;;;;;5074500;28;19947;-59
2021/09/30 12:09:42;;;;;;;;;;;18.80;60.80;;;;;;5069114;28;19916;-54
2021/09/30 12:12:07;;;;;;;;;;;18.80;60.70;;;;;;5069832;28;19941;-53
2021/09/30 12:14:33;;;;;;;;;;;18.80;60.80;;;;;;5078863;28;19924;-57
2021/09/30 12:17:03;;;;;;;;;;;18.80;60.80;;;;;;5097954;28;19987;-56
2021/09/30 12:19:35;;;;;;;;;;;18.80;60.80;;;;;;5076851;28;20424;-54
2021/09/30 12:22:00;;;;;;;;;;;18.80;60.90;;;;;;5074572;28;19916;-57
2021/09/30 12:24:26;;;;;;;;;;;18.80;60.80;;;;;;5073713;28;19918;-53
2021/09/30 12:26:52;;;;;;;;;;;18.80;60.80;;;;;;5087497;28;19916;-52
2021/09/30 12:29:17;;;;;;;;;;;18.80;60.90;;;;;;5083499;28;19999;-57
2021/09/30 12:31:43;;;;;;;;;;;18.80;60.80;;;;;;5094620;28;19945;-54
2021/09/30 12:34:24;;;;;;;;;;;18.80;60.80;;;;;;5083677;28;19916;-54
2021/09/30 12:36:49;;;;;;;;;;;18.80;60.90;;;;;;5096678;28;19912;-58
2021/09/30 12:39:22;;;;;;;;;;;18.80;60.90;;;;;;5077794;28;19916;-57
2021/09/30 12:41:47;;;;;;;;;;;18.80;60.90;;;;;;5073573;28;19995;-56
2021/09/30 12:44:13;;;;;;;;;;;18.80;60.90;;;;;;5077740;28;19916;-56
2021/09/30 12:46:40;;;;;;;;;;;18.80;61.00;;;;;;5090620;28;19998;-54
2021/09/30 12:49:05;;;;;;;;;;;18.70;61.00;;;;;;5083542;28;19912;-52
2021/09/30 12:51:30;;;;;;;;;;;18.80;61.00;;;;;;5063809;28;20099;-54
2021/09/30 12:53:56;;;;;;;;;;;18.80;61.00;;;;;;5081946;28;19929;-55
2021/09/30 12:56:22;;;;;;;;;;;18.80;61.00;;;;;;5094563;28;20526;-54
2021/09/30 12:58:49;;;;;;;;;;;18.80;61.00;;;;;;5052957;28;19917;-60
2021/09/30 13:01:26;;;;;;;;;;;18.80;61.00;;;;;;5073018;28;19918;-58
2021/09/30 13:04:01;;;;;;;;;;;18.80;61.00;;;;;;5077471;28;20022;-54
2021/09/30 13:06:26;;;;;;;;;;;18.70;61.10;;;;;;5096057;28;19916;-59
2021/09/30 13:08:51;;;;;;;;;;;18.70;60.80;;;;;;5071911;28;19913;-54
2021/09/30 13:11:24;;;;;;;;;;;18.80;60.80;;;;;;5070139;28;19955;-54
2021/09/30 13:14:08;;;;;;;;;;;18.80;61.00;;;;;;5032865;28;19916;-54
2021/09/30 13:16:33;;;;;;;;;;;18.70;60.90;;;;;;5081880;28;19927;-57
2021/09/30 13:18:59;;;;;;;;;;;18.80;60.90;;;;;;5078446;28;19912;-58
2021/09/30 13:21:25;;;;;;;;;;;18.80;61.00;;;;;;5097668;28;20510;-56
2021/09/30 13:23:50;;;;;;;;;;;18.80;61.00;;;;;;5074187;28;19916;-56
2021/09/30 13:26:16;;;;;;;;;;;18.80;61.10;;;;;;5084619;28;20319;-57
2021/09/30 13:28:41;;;;;;;;;;;18.70;61.10;;;;;;5080408;28;19920;-58
2021/09/30 13:31:06;;;;;;;;;;;18.80;61.10;;;;;;5089220;28;19918;-54
2021/09/30 13:33:33;;;;;;;;;;;18.80;61.10;;;;;;5091261;28;19916;-54
2021/09/30 13:35:58;;;;;;;;;;;18.80;61.30;;;;;;5082591;28;19916;-54
2021/09/30 13:38:23;;;;;;;;;;;18.80;61.20;;;;;;5101428;28;19912;-56
2021/09/30 13:40:49;;;;;;;;;;;18.70;61.10;;;;;;5077366;28;19951;-53
2021/09/30 13:43:16;;;;;;;;;;;18.70;61.10;;;;;;5097913;28;19920;-56
2021/09/30 13:45:41;;;;;;;;;;;18.70;61.10;;;;;;5073307;28;19916;-57
2021/09/30 13:48:07;;;;;;;;;;;18.80;61.10;;;;;;5090981;28;19931;-55
2021/09/30 13:50:33;;;;;;;;;;;18.80;61.10;;;;;;5056867;28;19912;-57
2021/09/30 13:52:59;;;;;;;;;;;18.80;61.00;;;;;;5088732;28;19955;-56
2021/09/30 13:55:24;;;;;;;;;;;18.80;61.10;;;;;;5060263;28;19962;-55
2021/09/30 13:57:50;;;;;;;;;;;18.70;61.10;;;;;;5071658;28;20327;-58
2021/09/30 14:00:16;;;;;;;;;;;18.80;61.20;;;;;;5055393;28;19912;-52
2021/09/30 14:02:41;;;;;;;;;;;18.80;61.10;;;;;;5072244;28;19916;-53
2021/09/30 14:05:07;;;;;;;;;;;18.80;61.00;;;;;;5081938;28;20274;-54
2021/09/30 14:07:35;;;;;;;;;;;18.80;60.80;;;;;;5093358;28;20355;-53
2021/09/30 14:10:02;;;;;;;;;;;18.80;61.10;;;;;;5071203;28;20486;-54
2021/09/30 14:12:27;;;;;;;;;;;18.80;61.10;;;;;;5096529;28;20195;-52
2021/09/30 14:14:53;;;;;;;;;;;18.80;61.10;;;;;;5071223;28;19916;-51
2021/09/30 14:17:18;;;;;;;;;;;18.80;61.30;;;;;;5059626;28;20434;-51
2021/09/30 14:19:43;;;;;;;;;;;18.70;61.10;;;;;;5076012;28;19989;-53
2021/09/30 14:22:09;;;;;;;;;;;18.80;61.10;;;;;;5079910;28;19916;-53
2021/09/30 14:24:35;;;;;;;;;;;18.80;61.10;;;;;;5075377;28;19916;-59
2021/09/30 14:27:01;;;;;;;;;;;18.70;61.00;;;;;;5083366;28;20494;-55
2021/09/30 14:29:26;;;;;;;;;;;18.80;61.10;;;;;;5085974;28;19912;-56
2021/09/30 14:31:52;;;;;;;;;;;18.80;61.10;;;;;;5086187;28;19988;-58
2021/09/30 14:34:17;;;;;;;;;;;18.80;61.00;;;;;;5079964;28;19916;-59
2021/09/30 14:36:43;;;;;;;;;;;18.80;60.90;;;;;;5091940;28;20261;-59
2021/09/30 14:39:08;;;;;;;;;;;18.80;60.60;;;;;;5084645;28;19912;-55
2021/09/30 14:41:34;;;;;;;;;;;18.80;60.90;;;;;;5101301;28;19938;-56
2021/09/30 14:43:59;;;;;;;;;;;18.80;60.90;;;;;;5060504;28;19916;-54
2021/09/30 14:46:25;;;;;;;;;;;18.80;61.00;;;;;;5081131;28;20293;-51
2021/09/30 14:48:50;;;;;;;;;;;18.80;61.00;;;;;;5071723;28;19912;-52
2021/09/30 14:51:16;;;;;;;;;;;18.80;61.00;;;;;;5084087;28;19916;-55
2021/09/30 14:53:41;;;;;;;;;;;18.80;61.00;;;;;;5076319;28;19920;-51
2021/09/30 14:56:07;;;;;;;;;;;18.80;61.00;;;;;;5090976;28;20604;-56
2021/09/30 14:58:33;;;;;;;;;;;18.80;61.00;;;;;;5084406;28;20045;-52
2021/09/30 15:00:58;;;;;;;;;;;18.80;61.00;;;;;;5076993;28;19919;-54
2021/09/30 15:03:24;;;;;;;;;;;18.80;61.00;;;;;;5081271;28;20335;-58
2021/09/30 15:05:49;;;;;;;;;;;18.80;61.00;;;;;;5083730;28;19978;-52
2021/09/30 15:08:15;;;;;;;;;;;18.80;61.00;;;;;;5092495;28;20285;-57
2021/09/30 15:10:40;;;;;;;;;;;18.70;61.50;;;;;;5065757;28;19943;-58
2021/09/30 15:13:06;;;;;;;;;;;18.80;61.00;;;;;;5101517;28;19911;-53
2021/09/30 15:15:32;;;;;;;;;;;18.80;61.00;;;;;;5081354;28;19954;-51
2021/09/30 15:23:27;;;;;;;;;;;18.80;60.90;;;;;;5082579;28;19912;-57
2021/09/30 15:25:52;;;;;;;;;;;18.80;60.90;;;;;;5054080;28;19920;-53
2021/09/30 15:28:18;;;;;;;;;;;18.80;60.90;;;;;;5091551;28;19972;-53
2021/09/30 15:30:44;;;;;;;;;;;18.80;60.80;;;;;;5068171;28;19965;-55
2021/09/30 15:33:10;;;;;;;;;;;18.80;60.70;;;;;;5088291;28;19925;-58
2021/09/30 15:35:36;;;;;;;;;;;18.80;60.80;;;;;;5047823;28;20397;-58
2021/09/30 15:38:02;;;;;;;;;;;18.80;60.90;;;;;;5087264;28;19916;-58
2021/09/30 15:40:27;;;;;;;;;;;18.80;60.90;;;;;;5064857;28;19955;-54
2021/09/30 15:42:53;;;;;;;;;;;18.80;61.00;;;;;;5088402;28;19924;-54
2021/09/30 15:45:20;;;;;;;;;;;18.80;61.00;;;;;;5053174;28;20080;-59
2021/09/30 15:47:46;;;;;;;;;;;18.80;61.10;;;;;;5076271;28;19923;-54
2021/09/30 15:50:11;;;;;;;;;;;18.80;61.00;;;;;;5064901;28;19923;-54
2021/09/30 15:52:37;;;;;;;;;;;18.80;61.20;;;;;;5082347;28;20015;-58
2021/09/30 15:55:03;;;;;;;;;;;18.80;61.50;;;;;;5074334;28;20451;-56
2021/09/30 15:57:28;;;;;;;;;;;18.80;61.70;;;;;;5087194;28;19915;-54
2021/09/30 15:59:54;;;;;;;;;;;18.80;62.30;;;;;;5070616;28;20461;-54
2021/09/30 16:02:19;;;;;;;;;;;18.80;62.40;;;;;;5101557;28;19916;-57
2021/09/30 16:04:46;;;;;;;;;;;18.80;63.30;;;;;;5076482;28;19920;-56
2021/09/30 16:07:11;;;;;;;;;;;18.80;64.00;;;;;;5090721;28;19923;-56
2021/09/30 16:09:37;;;;;;;;;;;18.80;64.30;;;;;;5065299;28;20053;-51
2021/09/30 16:12:02;;;;;;;;;;;18.80;64.30;;;;;;5092674;28;19916;-54
2021/09/30 16:14:28;;;;;;;;;;;18.80;64.20;;;;;;5090932;28;20329;-54
2021/09/30 16:16:57;;;;;;;;;;;18.80;63.70;;;;;;5086003;28;19916;-51
2021/09/30 16:19:25;;;;;;;;;;;18.80;63.80;;;;;;5088250;28;20262;-54
2021/09/30 16:21:51;;;;;;;;;;;18.80;64.20;;;;;;5089463;28;19924;-53
2021/09/30 16:24:17;;;;;;;;;;;18.80;64.50;;;;;;5086838;28;20308;-56
2021/09/30 16:26:43;;;;;;;;;;;18.80;64.30;;;;;;5088702;28;20380;-53
2021/09/30 16:29:08;;;;;;;;;;;18.80;63.90;;;;;;5088782;28;19961;-57
2021/09/30 16:31:36;;;;;;;;;;;18.80;63.50;;;;;;5076312;28;20637;-52
2021/09/30 16:34:03;;;;;;;;;;;18.80;63.20;;;;;;5095857;28;19981;-51
2021/09/30 16:36:28;;;;;;;;;;;18.80;63.10;;;;;;5096293;28;20045;-52
2021/09/30 16:38:53;;;;;;;;;;;18.80;62.90;;;;;;5086372;28;20686;-53
2021/09/30 16:41:19;;;;;;;;;;;18.80;62.80;;;;;;5075524;28;19993;-54
2021/09/30 16:43:44;;;;;;;;;;;18.80;62.70;;;;;;5086564;28;19927;-56
2021/09/30 16:46:10;;;;;;;;;;;18.80;62.70;;;;;;5091237;28;19920;-55
2021/09/30 16:48:35;;;;;;;;;;;18.80;62.60;;;;;;5085815;28;19916;-55
2021/09/30 16:51:01;;;;;;;;;;;18.80;62.50;;;;;;5093363;28;19932;-57
2021/09/30 16:53:27;;;;;;;;;;;18.90;62.30;;;;;;5085378;28;19916;-53
2021/09/30 16:55:53;;;;;;;;;;;18.90;62.30;;;;;;5091908;28;20439;-54